createdAt,value
2022-11-19T00:00:10.637Z,30.00
2022-11-19T00:03:13.846Z,30.00
2022-11-19T00:06:20.549Z,30.00
2022-11-19T00:09:23.894Z,26.00
2022-11-19T00:12:45.007Z,31.60
2022-11-19T00:15:48.346Z,28.80
2022-11-19T00:18:51.559Z,34.00
2022-11-19T00:21:56.851Z,29.20
2022-11-19T00:25:00.127Z,32.33
2022-11-19T00:28:03.366Z,28.25
2022-11-19T00:31:09.208Z,30.00
2022-11-19T00:34:13.100Z,29.60
2022-11-19T00:37:17.746Z,31.50
2022-11-19T00:40:20.916Z,26.00
2022-11-19T00:43:41.469Z,30.00
2022-11-19T00:46:44.742Z,36.00
2022-11-19T00:49:48.219Z,31.80
2022-11-19T00:52:52.873Z,31.50
2022-11-19T00:55:56.205Z,20.20
2022-11-19T00:58:59.692Z,33.40
2022-11-19T01:02:02.921Z,31.80
2022-11-19T01:05:07.161Z,31.00
2022-11-19T01:08:12.019Z,31.00
2022-11-19T01:11:17.697Z,31.60
2022-11-19T01:14:20.935Z,25.40
2022-11-19T01:17:24.433Z,27.60
2022-11-19T01:20:28.268Z,28.40
2022-11-19T01:23:34.171Z,29.00
2022-11-19T01:26:40.589Z,26.60
2022-11-19T01:29:47.627Z,26.80
2022-11-19T01:32:50.842Z,30.00
2022-11-19T01:35:58.346Z,29.00
2022-11-19T01:39:03.036Z,27.80
2022-11-19T01:42:26.960Z,26.00
2022-11-19T01:45:34.436Z,28.75
2022-11-19T01:48:42.370Z,29.75
2022-11-19T01:51:53.176Z,26.60
2022-11-19T01:54:57.964Z,26.00
2022-11-19T01:58:03.410Z,25.00
2022-11-19T02:01:07.744Z,26.25
2022-11-19T02:04:15.313Z,32.00
2022-11-19T02:07:21.495Z,30.00
2022-11-19T02:10:36.176Z,28.60
2022-11-19T02:13:44.011Z,31.00
2022-11-19T02:17:11.246Z,28.00
2022-11-19T02:20:45.134Z,28.50
2022-11-19T02:24:09.956Z,29.20
2022-11-19T02:27:47.770Z,30.00
2022-11-19T02:30:55.755Z,31.40
2022-11-19T02:34:03.269Z,30.40
2022-11-19T02:37:13.623Z,30.25
2022-11-19T02:40:24.029Z,30.00
2022-11-19T02:43:34.372Z,33.75
2022-11-19T02:46:39.814Z,30.40
2022-11-19T02:49:45.556Z,30.60
2022-11-19T02:52:50.578Z,33.00
2022-11-19T02:56:11.152Z,30.25
2022-11-19T02:59:35.254Z,31.75
2022-11-19T03:03:01.752Z,27.00
2022-11-19T03:06:10.747Z,29.00
2022-11-19T03:09:15.117Z,31.00
2022-11-19T03:12:24.374Z,32.25
2022-11-19T03:15:55.390Z,32.00
2022-11-19T03:19:07.946Z,32.00
2022-11-19T03:22:17.954Z,28.20
2022-11-19T03:25:28.109Z,30.75
2022-11-19T03:28:37.081Z,30.00
2022-11-19T03:31:45.291Z,28.00
2022-11-19T03:34:54.619Z,32.00
2022-11-19T03:38:02.814Z,27.25
2022-11-19T03:41:08.381Z,32.75
2022-11-19T03:44:16.846Z,31.50
2022-11-19T03:47:24.243Z,29.60
2022-11-19T03:50:34.130Z,33.60
2022-11-19T03:53:37.403Z,28.00
2022-11-19T03:56:42.796Z,30.00
2022-11-19T03:59:46.994Z,34.25
2022-11-19T04:02:50.349Z,33.40
2022-11-19T04:05:54.934Z,32.00
2022-11-19T04:08:58.686Z,33.25
2022-11-19T04:12:04.166Z,32.25
2022-11-19T04:15:08.465Z,31.00
2022-11-19T04:18:11.694Z,30.00
2022-11-19T04:21:16.460Z,32.00
2022-11-19T04:24:20.019Z,32.40
2022-11-19T04:27:23.300Z,34.00
2022-11-19T04:30:26.579Z,31.00
2022-11-19T04:33:29.769Z,32.40
2022-11-19T04:36:34.552Z,33.00
2022-11-19T04:39:37.784Z,33.00
2022-11-19T04:42:41.017Z,32.00
2022-11-19T04:45:44.235Z,30.00
2022-11-19T04:48:47.447Z,27.40
2022-11-19T04:51:52.464Z,30.00
2022-11-19T04:54:55.715Z,34.00
2022-11-19T04:57:58.895Z,33.00
2022-11-19T05:01:02.354Z,32.50
2022-11-19T05:04:05.967Z,32.60
2022-11-19T05:07:10.761Z,33.00
2022-11-19T05:10:14.561Z,30.00
2022-11-19T05:13:18.119Z,30.40
2022-11-19T05:16:21.375Z,32.20
2022-11-19T05:19:24.593Z,27.00
2022-11-19T05:22:29.584Z,30.00
2022-11-19T05:25:33.141Z,32.75
2022-11-19T05:28:39.491Z,30.20
2022-11-19T05:31:43.501Z,29.60
2022-11-19T05:34:46.877Z,30.75
2022-11-19T05:37:52.266Z,29.80
2022-11-19T05:40:55.511Z,33.20
2022-11-19T05:43:58.739Z,32.00
2022-11-19T05:47:01.987Z,31.60
2022-11-19T05:50:05.966Z,24.20
2022-11-19T05:53:10.807Z,33.60
2022-11-19T05:56:14.132Z,30.80
2022-11-19T05:59:18.053Z,33.50
2022-11-19T06:02:21.593Z,29.60
2022-11-19T06:05:24.827Z,29.00
2022-11-19T06:08:29.771Z,33.20
2022-11-19T06:11:51.438Z,32.00
2022-11-19T06:14:55.889Z,31.80
2022-11-19T06:17:59.160Z,32.00
2022-11-19T06:21:02.360Z,33.00
2022-11-19T06:24:07.859Z,31.50
2022-11-19T06:27:11.357Z,30.00
2022-11-19T06:30:16.329Z,33.00
2022-11-19T06:33:19.584Z,32.00
2022-11-19T06:36:27.214Z,29.00
2022-11-19T06:39:32.633Z,36.00
2022-11-19T06:42:38.710Z,34.40
2022-11-19T06:45:41.992Z,30.60
2022-11-19T06:48:45.221Z,34.00
2022-11-19T06:51:48.519Z,32.00
2022-11-19T06:54:53.122Z,32.50
2022-11-19T06:57:57.826Z,30.60
2022-11-19T07:01:01.130Z,32.00
2022-11-19T07:04:04.458Z,29.75
2022-11-19T07:07:07.790Z,33.00
2022-11-19T07:10:12.926Z,32.80
2022-11-19T07:13:16.194Z,31.40
2022-11-19T07:16:19.405Z,32.00
2022-11-19T07:19:22.708Z,34.00
2022-11-19T07:22:27.342Z,32.00
2022-11-19T07:25:32.436Z,25.00
2022-11-19T07:28:36.329Z,30.00
2022-11-19T07:31:39.547Z,31.20
2022-11-19T07:34:42.864Z,27.60
2022-11-19T07:37:46.320Z,30.00
2022-11-19T07:40:55.336Z,25.60
2022-11-19T07:43:57.622Z,29.75
2022-11-19T07:47:01.241Z,32.80
2022-11-19T07:50:06.033Z,32.00
2022-11-19T07:53:09.418Z,31.60
2022-11-19T07:56:14.087Z,32.00
2022-11-19T07:59:17.617Z,34.60
2022-11-19T08:02:21.042Z,32.00
2022-11-19T08:05:24.291Z,35.00
2022-11-19T08:08:27.541Z,35.00
2022-11-19T08:11:32.839Z,32.80
2022-11-19T08:14:36.064Z,28.00
2022-11-19T08:17:57.039Z,29.00
2022-11-19T08:21:05.472Z,28.60
2022-11-19T08:24:09.497Z,27.50
2022-11-19T08:27:14.706Z,27.60
2022-11-19T08:30:18.394Z,26.00
2022-11-19T08:33:22.022Z,27.00
2022-11-19T08:36:25.364Z,22.80
2022-11-19T08:39:29.044Z,30.20
2022-11-19T08:42:51.234Z,28.80
2022-11-19T08:45:55.021Z,25.00
2022-11-19T08:48:58.953Z,27.60
2022-11-19T08:52:02.188Z,20.00
2022-11-19T08:55:06.131Z,21.00
2022-11-19T08:58:14.102Z,30.00
2022-11-19T09:01:20.465Z,21.75
2022-11-19T09:04:25.810Z,23.00
2022-11-19T09:07:30.891Z,27.00
2022-11-19T09:10:34.191Z,24.00
2022-11-19T09:13:39.380Z,30.00
2022-11-19T09:16:42.680Z,25.20
2022-11-19T09:19:46.482Z,29.50
2022-11-19T09:22:49.825Z,31.00
2022-11-19T09:25:57.353Z,31.75
2022-11-19T09:29:02.243Z,29.00
2022-11-19T09:32:05.977Z,29.60
2022-11-19T09:35:09.947Z,30.80
2022-11-19T09:38:13.470Z,28.50
2022-11-19T09:41:35.418Z,29.80
2022-11-19T09:45:06.337Z,28.00
2022-11-19T09:48:31.097Z,33.40
2022-11-19T09:51:35.555Z,24.40
2022-11-19T09:54:51.477Z,31.00
2022-11-19T09:57:58.355Z,29.60
2022-11-19T10:01:03.239Z,30.00
2022-11-19T10:04:06.751Z,20.75
2022-11-19T10:07:19.318Z,28.00
2022-11-19T10:10:38.977Z,31.00
2022-11-19T10:13:54.799Z,29.60
2022-11-19T10:17:12.944Z,28.00
2022-11-19T10:20:42.748Z,28.50
2022-11-19T10:23:52.955Z,20.00
2022-11-19T10:27:08.299Z,18.80
2022-11-19T10:30:16.426Z,17.20
2022-11-19T10:33:29.278Z,19.20
2022-11-19T10:36:38.146Z,22.20
2022-11-19T10:39:45.108Z,23.40
2022-11-19T10:42:53.798Z,22.75
2022-11-19T10:45:59.598Z,30.40
2022-11-19T10:49:06.107Z,22.50
2022-11-19T10:52:26.576Z,28.00
2022-11-19T10:55:33.577Z,30.00
2022-11-19T10:58:41.739Z,33.40
2022-11-19T11:01:48.448Z,27.20
2022-11-19T11:05:06.256Z,33.00
2022-11-19T11:08:12.274Z,31.40
2022-11-19T11:11:23.676Z,31.00
2022-11-19T11:14:44.452Z,20.60
2022-11-19T11:17:48.978Z,20.50
2022-11-19T11:20:53.984Z,23.00
2022-11-19T11:23:57.779Z,24.40
2022-11-19T11:27:22.618Z,20.60
2022-11-19T11:30:25.924Z,24.00
2022-11-19T11:33:33.478Z,25.40
2022-11-19T11:36:38.656Z,26.50
2022-11-19T11:39:44.543Z,25.60
2022-11-19T11:42:48.226Z,24.20
2022-11-19T11:45:58.282Z,32.00
2022-11-19T11:49:08.285Z,28.50
2022-11-19T11:52:24.599Z,30.00
2022-11-19T11:55:33.064Z,30.00
2022-11-19T11:58:37.724Z,30.00
2022-11-19T12:01:42.993Z,32.40
2022-11-19T12:04:46.318Z,32.00
2022-11-19T12:08:03.875Z,30.00
2022-11-19T12:11:17.315Z,29.20
2022-11-19T12:14:25.076Z,31.50
2022-11-19T12:17:41.802Z,32.00
2022-11-19T12:20:55.326Z,30.00
2022-11-19T12:24:17.316Z,30.00
2022-11-19T12:27:31.132Z,31.40
2022-11-19T12:30:50.634Z,33.60
2022-11-19T12:34:12.220Z,34.50
2022-11-19T12:37:28.850Z,36.00
2022-11-19T12:40:43.207Z,34.60
2022-11-19T12:43:57.046Z,34.33
2022-11-19T12:47:12.599Z,38.40
2022-11-19T12:50:23.964Z,38.00
2022-11-19T12:53:47.174Z,38.00
2022-11-19T12:57:00.208Z,33.40
2022-11-19T13:00:14.136Z,34.50
2022-11-19T13:03:21.734Z,31.75
2022-11-19T13:06:32.204Z,31.50
2022-11-19T13:09:39.919Z,32.25
2022-11-19T13:12:50.651Z,35.40
2022-11-19T13:16:00.078Z,33.40
2022-11-19T13:19:14.478Z,32.75
2022-11-19T13:22:21.680Z,36.60
2022-11-19T13:25:28.190Z,34.75
2022-11-19T13:28:39.532Z,39.50
2022-11-19T13:31:48.374Z,39.00
2022-11-19T13:35:04.707Z,33.00
2022-11-19T13:38:17.883Z,36.00
2022-11-19T13:41:25.664Z,37.00
2022-11-19T13:44:39.066Z,37.00
2022-11-19T13:47:47.671Z,35.40
2022-11-19T13:50:53.640Z,33.60
2022-11-19T13:54:02.725Z,40.00
2022-11-19T13:57:09.029Z,34.80
2022-11-19T14:00:24.667Z,36.00
2022-11-19T14:03:45.417Z,35.00
2022-11-19T14:07:10.617Z,39.00
2022-11-19T14:10:23.524Z,42.40
2022-11-19T14:13:52.088Z,38.00
2022-11-19T14:17:21.626Z,38.75
2022-11-19T14:21:01.965Z,39.00
2022-11-19T14:25:04.763Z,38.40
2022-11-19T14:28:49.567Z,34.20
2022-11-19T14:32:29.915Z,40.00
2022-11-19T14:35:40.372Z,35.00
2022-11-19T14:38:49.542Z,37.80
2022-11-19T14:42:14.377Z,39.00
2022-11-19T14:45:21.933Z,36.60
2022-11-19T14:48:26.610Z,37.80
2022-11-19T14:51:35.175Z,37.40
2022-11-19T14:54:44.219Z,37.00
2022-11-19T14:57:57.754Z,36.00
2022-11-19T15:01:09.778Z,40.00
2022-11-19T15:04:15.127Z,40.00
2022-11-19T15:07:36.147Z,40.20
2022-11-19T15:10:49.709Z,41.00
2022-11-19T15:15:00.031Z,38.80
2022-11-19T15:18:19.379Z,42.00
2022-11-19T15:21:48.539Z,41.25
2022-11-19T15:25:22.134Z,41.75
2022-11-19T15:28:42.775Z,44.00
2022-11-19T15:32:06.878Z,41.00
2022-11-19T15:35:35.698Z,41.00
2022-11-19T15:38:44.618Z,43.25
2022-11-19T15:42:01.446Z,41.00
2022-11-19T15:45:09.309Z,43.25
2022-11-19T15:48:17.585Z,41.50
2022-11-19T15:51:22.842Z,43.00
2022-11-19T15:54:32.104Z,44.40
2022-11-19T15:57:41.580Z,41.00
2022-11-19T16:00:47.174Z,44.00
2022-11-19T16:03:53.307Z,43.40
2022-11-19T16:06:57.075Z,45.00
2022-11-19T16:10:02.556Z,44.20
2022-11-19T16:13:40.292Z,44.00
2022-11-19T16:17:00.954Z,42.00
2022-11-19T16:20:19.107Z,44.00
2022-11-19T16:23:25.368Z,44.60
2022-11-19T16:26:30.389Z,43.40
2022-11-19T16:29:37.302Z,46.40
2022-11-19T16:32:40.827Z,41.60
2022-11-19T16:35:48.310Z,45.80
2022-11-19T16:38:55.997Z,46.00
2022-11-19T16:42:18.106Z,46.00
2022-11-19T16:45:24.655Z,46.40
2022-11-19T16:48:56.250Z,45.40
2022-11-19T16:52:01.029Z,46.00
2022-11-19T16:55:06.162Z,45.60
2022-11-19T16:58:20.580Z,47.25
2022-11-19T17:01:28.142Z,44.50
2022-11-19T17:04:33.161Z,47.50
2022-11-19T17:07:37.661Z,46.75
2022-11-19T17:10:41.416Z,47.40
2022-11-19T17:13:46.485Z,47.00
2022-11-19T17:16:51.426Z,47.50
2022-11-19T17:19:56.577Z,49.50
2022-11-19T17:23:00.799Z,50.00
2022-11-19T17:26:07.944Z,49.00
2022-11-19T17:29:17.245Z,47.25
2022-11-19T17:32:20.501Z,50.00
2022-11-19T17:35:35.358Z,51.00
2022-11-19T17:38:38.853Z,52.00
2022-11-19T17:42:02.503Z,50.20
2022-11-19T17:45:11.047Z,50.60
2022-11-19T17:48:22.148Z,51.80
2022-11-19T17:51:27.007Z,49.25
2022-11-19T17:54:31.945Z,48.25
2022-11-19T17:57:41.158Z,50.60
2022-11-19T18:00:47.757Z,52.00
2022-11-19T18:03:51.033Z,51.40
2022-11-19T18:06:54.595Z,52.00
2022-11-19T18:09:57.863Z,56.50
2022-11-19T18:13:01.644Z,53.50
2022-11-19T18:16:14.148Z,55.40
2022-11-19T18:19:26.476Z,59.20
2022-11-19T18:22:30.151Z,55.33
2022-11-19T18:25:33.427Z,53.00
2022-11-19T18:28:37.010Z,55.00
2022-11-19T18:31:44.626Z,53.40
2022-11-19T18:34:47.863Z,56.50
2022-11-19T18:37:51.104Z,53.00
2022-11-19T18:40:54.490Z,53.40
2022-11-19T18:44:15.219Z,52.20
2022-11-19T18:47:22.102Z,53.00
2022-11-19T18:50:29.919Z,49.20
2022-11-19T18:53:33.717Z,53.00
2022-11-19T18:56:37.035Z,51.00
2022-11-19T18:59:41.474Z,53.00
2022-11-19T19:02:46.132Z,55.00
2022-11-19T19:05:49.482Z,55.40
2022-11-19T19:08:53.174Z,59.00
2022-11-19T19:12:14.251Z,54.60
2022-11-19T19:15:17.823Z,53.00
2022-11-19T19:18:22.421Z,53.80
2022-11-19T19:21:26.030Z,60.60
2022-11-19T19:24:29.502Z,61.00
2022-11-19T19:27:33.685Z,56.60
2022-11-19T19:30:37.000Z,58.00
2022-11-19T19:33:41.758Z,56.50
2022-11-19T19:36:48.965Z,57.40
2022-11-19T19:39:56.155Z,57.00
2022-11-19T19:43:03.192Z,53.40
2022-11-19T19:46:08.354Z,56.50
2022-11-19T19:49:12.963Z,53.40
2022-11-19T19:52:16.367Z,57.00
2022-11-19T19:55:19.930Z,53.00
2022-11-19T19:58:27.904Z,53.00
2022-11-19T20:01:33.354Z,53.00
2022-11-19T20:04:38.060Z,52.20
2022-11-19T20:07:41.410Z,51.00
2022-11-19T20:10:44.721Z,53.00
2022-11-19T20:13:48.613Z,52.20
2022-11-19T20:16:51.850Z,52.40
2022-11-19T20:19:56.407Z,50.80
2022-11-19T20:22:59.961Z,51.60
2022-11-19T20:26:05.284Z,50.25
2022-11-19T20:29:09.274Z,51.60
2022-11-19T20:32:12.590Z,54.50
2022-11-19T20:35:18.331Z,55.40
2022-11-19T20:38:21.800Z,57.00
2022-11-19T20:41:42.117Z,55.75
2022-11-19T20:44:45.430Z,54.00
2022-11-19T20:47:48.727Z,54.00
2022-11-19T20:50:53.273Z,54.40
2022-11-19T20:53:56.588Z,53.25
2022-11-19T20:57:00.822Z,55.80
2022-11-19T21:00:05.298Z,56.00
2022-11-19T21:03:08.751Z,53.25
2022-11-19T21:06:13.687Z,52.00
2022-11-19T21:09:17.055Z,55.00
2022-11-19T21:12:20.331Z,55.00
2022-11-19T21:15:23.543Z,54.00
2022-11-19T21:18:30.159Z,54.75
2022-11-19T21:21:38.682Z,57.75
2022-11-19T21:24:42.147Z,53.00
2022-11-19T21:27:45.674Z,58.00
2022-11-19T21:30:52.792Z,58.60
2022-11-19T21:33:56.067Z,60.80
2022-11-19T21:37:01.072Z,59.60
2022-11-19T21:40:04.700Z,58.00
2022-11-19T21:43:09.051Z,60.80
2022-11-19T21:46:13.017Z,58.60
2022-11-19T21:49:16.316Z,55.60
2022-11-19T21:52:21.061Z,59.00
2022-11-19T21:55:24.409Z,54.50
2022-11-19T21:58:27.690Z,57.20
2022-11-19T22:01:30.870Z,59.80
2022-11-19T22:04:34.142Z,57.00
2022-11-19T22:07:39.118Z,62.25
2022-11-19T22:10:45.535Z,63.20
2022-11-19T22:13:49.459Z,63.00
2022-11-19T22:16:54.668Z,59.00
2022-11-19T22:19:57.989Z,58.60
2022-11-19T22:23:04.946Z,60.80
2022-11-19T22:26:10.596Z,59.00
2022-11-19T22:29:14.223Z,56.40
2022-11-19T22:32:17.900Z,60.60
2022-11-19T22:35:21.225Z,59.40
2022-11-19T22:38:26.312Z,58.00
2022-11-19T22:41:29.730Z,56.20
2022-11-19T22:44:33.078Z,57.00
2022-11-19T22:47:36.995Z,57.00
2022-11-19T22:50:41.240Z,57.00
2022-11-19T22:53:46.243Z,59.40
2022-11-19T22:56:49.557Z,57.80
2022-11-19T22:59:52.829Z,54.80
2022-11-19T23:02:56.050Z,57.50
2022-11-19T23:06:00.086Z,59.00
2022-11-19T23:09:05.517Z,59.00
2022-11-19T23:12:27.314Z,61.00
2022-11-19T23:15:30.858Z,57.75
2022-11-19T23:18:36.045Z,55.40
2022-11-19T23:21:40.288Z,57.00
2022-11-19T23:24:44.961Z,64.50
2022-11-19T23:27:48.256Z,60.50
2022-11-19T23:30:51.602Z,60.80
2022-11-19T23:33:58.956Z,59.40
2022-11-19T23:37:02.625Z,58.40
2022-11-19T23:40:09.681Z,56.75
2022-11-19T23:43:12.949Z,60.80
2022-11-19T23:46:18.242Z,59.00
2022-11-19T23:49:21.968Z,60.40
2022-11-19T23:52:25.458Z,64.60
2022-11-19T23:55:30.397Z,59.80
2022-11-19T23:58:34.426Z,57.00
